sensor_id;sensor_type;location;lat;lon;timestamp;pressure;altitude;pressure_sealevel;temperature;humidity
23419;BME280;11882;42.522;27.458;2022-08-25T00:01:53;100648.25;;;25.62;90.86
23419;BME280;11882;42.522;27.458;2022-08-25T00:04:22;100648.25;;;25.62;90.69
23419;BME280;11882;42.522;27.458;2022-08-25T00:06:49;100652.09;;;25.61;90.70
23419;BME280;11882;42.522;27.458;2022-08-25T00:09:19;100641.75;;;25.58;90.72
23419;BME280;11882;42.522;27.458;2022-08-25T00:11:47;100634.38;;;25.58;90.60
23419;BME280;11882;42.522;27.458;2022-08-25T00:14:17;100631.13;;;25.56;90.67
23419;BME280;11882;42.522;27.458;2022-08-25T00:16:45;100620.53;;;25.50;90.59
23419;BME280;11882;42.522;27.458;2022-08-25T00:19:16;100615.09;;;25.45;89.81
23419;BME280;11882;42.522;27.458;2022-08-25T00:21:44;100611.28;;;25.41;89.44
23419;BME280;11882;42.522;27.458;2022-08-25T00:24:13;100602.59;;;25.38;88.69
23419;BME280;11882;42.522;27.458;2022-08-25T00:26:43;100590.06;;;25.37;87.74
23419;BME280;11882;42.522;27.458;2022-08-25T00:29:11;100590.59;;;25.34;86.46
23419;BME280;11882;42.522;27.458;2022-08-25T00:31:39;100587.34;;;25.32;85.26
23419;BME280;11882;42.522;27.458;2022-08-25T00:34:07;100589.81;;;25.29;84.76
23419;BME280;11882;42.522;27.458;2022-08-25T00:36:36;100583.28;;;25.30;84.51
23419;BME280;11882;42.522;27.458;2022-08-25T00:39:05;100572.66;;;25.28;84.38
23419;BME280;11882;42.522;27.458;2022-08-25T00:41:32;100573.75;;;25.27;84.21
23419;BME280;11882;42.522;27.458;2022-08-25T00:44:02;100572.13;;;25.26;84.14
23419;BME280;11882;42.522;27.458;2022-08-25T00:46:33;100571.84;;;25.23;82.57
23419;BME280;11882;42.522;27.458;2022-08-25T00:49:03;100578.69;;;25.20;81.39
23419;BME280;11882;42.522;27.458;2022-08-25T00:51:35;100564.25;;;25.20;80.52
23419;BME280;11882;42.522;27.458;2022-08-25T00:54:05;100560.44;;;25.21;80.10
23419;BME280;11882;42.522;27.458;2022-08-25T00:56:33;100556.88;;;25.20;79.51
23419;BME280;11882;42.522;27.458;2022-08-25T00:59:02;100570.50;;;25.20;79.36
23419;BME280;11882;42.522;27.458;2022-08-25T01:01:30;100560.16;;;25.22;79.34
23419;BME280;11882;42.522;27.458;2022-08-25T01:03:57;100551.16;;;25.22;78.46
23419;BME280;11882;42.522;27.458;2022-08-25T01:06:25;100547.38;;;25.18;78.40
23419;BME280;11882;42.522;27.458;2022-08-25T01:08:53;100549.00;;;25.19;78.76
23419;BME280;11882;42.522;27.458;2022-08-25T01:11:21;100539.47;;;25.16;78.29
23419;BME280;11882;42.522;27.458;2022-08-25T01:13:52;100549.00;;;25.19;79.00
23419;BME280;11882;42.522;27.458;2022-08-25T01:16:20;100542.72;;;25.18;78.28
23419;BME280;11882;42.522;27.458;2022-08-25T01:18:50;100537.28;;;25.18;78.31
23419;BME280;11882;42.522;27.458;2022-08-25T01:21:21;100538.09;;;25.19;77.98
23419;BME280;11882;42.522;27.458;2022-08-25T01:23:49;100528.56;;;25.16;77.93
23419;BME280;11882;42.522;27.458;2022-08-25T01:26:19;100528.84;;;25.15;77.96
23419;BME280;11882;42.522;27.458;2022-08-25T01:28:47;100514.44;;;25.14;77.60
23419;BME280;11882;42.522;27.458;2022-08-25T01:31:48;100515.53;;;25.13;77.82
23419;BME280;11882;42.522;27.458;2022-08-25T01:34:17;100511.16;;;25.12;77.16
23419;BME280;11882;42.522;27.458;2022-08-25T01:36:45;100507.63;;;25.12;77.33
23419;BME280;11882;42.522;27.458;2022-08-25T01:39:13;100502.47;;;25.10;76.59
23419;BME280;11882;42.522;27.458;2022-08-25T01:41:53;100506.00;;;25.11;76.65
23419;BME280;11882;42.522;27.458;2022-08-25T01:44:20;100507.63;;;25.12;76.32
23419;BME280;11882;42.522;27.458;2022-08-25T01:46:47;100502.75;;;25.09;76.14
23419;BME280;11882;42.522;27.458;2022-08-25T01:49:14;100495.94;;;25.06;75.76
23419;BME280;11882;42.522;27.458;2022-08-25T01:51:43;100498.38;;;25.08;75.30
23419;BME280;11882;42.522;27.458;2022-08-25T01:54:13;100495.66;;;25.08;75.16
23419;BME280;11882;42.522;27.458;2022-08-25T01:56:41;100501.94;;;25.08;75.03
23419;BME280;11882;42.522;27.458;2022-08-25T01:59:08;100503.03;;;25.07;75.00
23419;BME280;11882;42.522;27.458;2022-08-25T02:01:36;100509.56;;;25.06;74.83
23419;BME280;11882;42.522;27.458;2022-08-25T02:04:03;100512.56;;;25.04;74.62
23419;BME280;11882;42.522;27.458;2022-08-25T02:06:32;100508.75;;;25.05;74.28
23419;BME280;11882;42.522;27.458;2022-08-25T02:09:03;100511.22;;;25.02;74.27
23419;BME280;11882;42.522;27.458;2022-08-25T02:11:32;100516.13;;;25.00;74.01
23419;BME280;11882;42.522;27.458;2022-08-25T02:13:59;100531.63;;;24.99;74.00
23419;BME280;11882;42.522;27.458;2022-08-25T02:16:28;100538.47;;;24.97;73.63
23419;BME280;11882;42.522;27.458;2022-08-25T02:18:56;100544.97;;;24.96;73.79
23419;BME280;11882;42.522;27.458;2022-08-25T02:21:24;100541.16;;;24.92;73.50
23419;BME280;11882;42.522;27.458;2022-08-25T02:23:51;100534.38;;;24.84;72.80
23419;BME280;11882;42.522;27.458;2022-08-25T02:26:18;100533.28;;;24.85;72.82
23419;BME280;11882;42.522;27.458;2022-08-25T02:28:49;100540.09;;;24.88;73.20
23419;BME280;11882;42.522;27.458;2022-08-25T02:31:17;100544.72;;;24.87;73.42
23419;BME280;11882;42.522;27.458;2022-08-25T02:33:45;100546.63;;;24.87;73.04
23419;BME280;11882;42.522;27.458;2022-08-25T02:36:12;100538.72;;;24.85;72.87
23419;BME280;11882;42.522;27.458;2022-08-25T02:38:40;100539.56;;;24.86;72.58
23419;BME280;11882;42.522;27.458;2022-08-25T02:41:09;100536.28;;;24.84;72.77
23419;BME280;11882;42.522;27.458;2022-08-25T02:43:36;100533.28;;;24.85;73.05
23419;BME280;11882;42.522;27.458;2022-08-25T02:46:05;100531.13;;;24.82;72.79
23419;BME280;11882;42.522;27.458;2022-08-25T02:48:32;100525.69;;;24.77;72.39
23419;BME280;11882;42.522;27.458;2022-08-25T02:51:00;100529.50;;;24.76;72.29
23419;BME280;11882;42.522;27.458;2022-08-25T02:53:28;100528.69;;;24.75;72.75
23419;BME280;11882;42.522;27.458;2022-08-25T02:55:56;100527.34;;;24.73;72.10
23419;BME280;11882;42.522;27.458;2022-08-25T02:58:23;100527.63;;;24.66;71.76
23419;BME280;11882;42.522;27.458;2022-08-25T03:00:50;100525.44;;;24.63;72.28
23419;BME280;11882;42.522;27.458;2022-08-25T03:03:19;100527.91;;;24.65;72.54
23419;BME280;11882;42.522;27.458;2022-08-25T03:05:46;100522.72;;;24.63;72.19
23419;BME280;11882;42.522;27.458;2022-08-25T03:08:14;100521.91;;;24.63;72.67
23419;BME280;11882;42.522;27.458;2022-08-25T03:10:41;100523.81;;;24.62;72.71
23419;BME280;11882;42.522;27.458;2022-08-25T03:13:08;100522.75;;;24.58;73.41
23419;BME280;11882;42.522;27.458;2022-08-25T03:15:35;100537.44;;;24.57;73.28
23419;BME280;11882;42.522;27.458;2022-08-25T03:18:04;100535.81;;;24.56;73.82
23419;BME280;11882;42.522;27.458;2022-08-25T03:20:32;100542.34;;;24.50;74.24
23419;BME280;11882;42.522;27.458;2022-08-25T03:23:00;100542.06;;;24.47;74.67
23419;BME280;11882;42.522;27.458;2022-08-25T03:25:28;100542.63;;;24.43;75.47
23419;BME280;11882;42.522;27.458;2022-08-25T03:28:12;100535.56;;;24.42;75.90
23419;BME280;11882;42.522;27.458;2022-08-25T03:30:40;100547.78;;;24.40;76.51
23419;BME280;11882;42.522;27.458;2022-08-25T03:33:07;100540.19;;;24.37;77.56
23419;BME280;11882;42.522;27.458;2022-08-25T03:35:36;100551.59;;;24.34;77.71
23419;BME280;11882;42.522;27.458;2022-08-25T03:38:03;100544.81;;;24.31;79.14
23419;BME280;11882;42.522;27.458;2022-08-25T03:40:31;100543.44;;;24.29;79.77
23419;BME280;11882;42.522;27.458;2022-08-25T03:42:58;100538.28;;;24.27;80.25
23419;BME280;11882;42.522;27.458;2022-08-25T03:45:25;100542.06;;;24.21;81.13
23419;BME280;11882;42.522;27.458;2022-08-25T03:47:52;100538.25;;;24.17;81.12
23419;BME280;11882;42.522;27.458;2022-08-25T03:50:20;100532.00;;;24.17;81.06
23419;BME280;11882;42.522;27.458;2022-08-25T03:52:51;100537.97;;;24.19;80.81
23419;BME280;11882;42.522;27.458;2022-08-25T03:55:20;100550.22;;;24.21;81.10
23419;BME280;11882;42.522;27.458;2022-08-25T03:57:47;100542.06;;;24.21;80.57
23419;BME280;11882;42.522;27.458;2022-08-25T04:00:14;100540.16;;;24.22;79.83
23419;BME280;11882;42.522;27.458;2022-08-25T04:02:41;100537.72;;;24.20;78.92
23419;BME280;11882;42.522;27.458;2022-08-25T04:05:09;100545.31;;;24.23;78.04
23419;BME280;11882;42.522;27.458;2022-08-25T04:07:36;100547.78;;;24.25;77.64
23419;BME280;11882;42.522;27.458;2022-08-25T04:10:07;100542.91;;;24.27;77.53
23419;BME280;11882;42.522;27.458;2022-08-25T04:12:35;100542.63;;;24.28;77.56
23419;BME280;11882;42.522;27.458;2022-08-25T04:15:03;100542.63;;;24.28;77.08
23419;BME280;11882;42.522;27.458;2022-08-25T04:17:30;100533.66;;;24.28;76.94
23419;BME280;11882;42.522;27.458;2022-08-25T04:19:57;100530.13;;;24.32;77.42
23419;BME280;11882;42.522;27.458;2022-08-25T04:22:24;100533.09;;;24.36;77.34
23419;BME280;11882;42.522;27.458;2022-08-25T04:24:51;100523.84;;;24.37;76.97
23419;BME280;11882;42.522;27.458;2022-08-25T04:27:19;100522.78;;;24.38;77.10
23419;BME280;11882;42.522;27.458;2022-08-25T04:29:46;100520.31;;;24.41;76.86
23419;BME280;11882;42.522;27.458;2022-08-25T04:32:13;100523.31;;;24.45;76.77
23419;BME280;11882;42.522;27.458;2022-08-25T04:34:40;100531.19;;;24.47;76.38
23419;BME280;11882;42.522;27.458;2022-08-25T04:37:08;100533.63;;;24.48;76.21
23419;BME280;11882;42.522;27.458;2022-08-25T04:39:35;100536.09;;;24.50;75.51
23419;BME280;11882;42.522;27.458;2022-08-25T04:42:02;100535.53;;;24.53;74.77
23419;BME280;11882;42.522;27.458;2022-08-25T04:44:31;100543.69;;;24.53;74.33
23419;BME280;11882;42.522;27.458;2022-08-25T04:46:59;100545.59;;;24.57;74.31
23419;BME280;11882;42.522;27.458;2022-08-25T04:49:26;100542.31;;;24.60;74.12
23419;BME280;11882;42.522;27.458;2022-08-25T04:51:53;100536.06;;;24.65;74.15
23419;BME280;11882;42.522;27.458;2022-08-25T04:54:21;100537.69;;;24.71;74.34
23419;BME280;11882;42.522;27.458;2022-08-25T04:56:49;100550.47;;;24.75;74.10
23419;BME280;11882;42.522;27.458;2022-08-25T04:59:17;100551.53;;;24.80;73.89
23419;BME280;11882;42.522;27.458;2022-08-25T05:01:46;100546.34;;;24.83;73.69
23419;BME280;11882;42.522;27.458;2022-08-25T05:04:14;100552.88;;;24.87;73.23
23419;BME280;11882;42.522;27.458;2022-08-25T05:06:42;100544.16;;;24.90;73.72
23419;BME280;11882;42.522;27.458;2022-08-25T05:09:09;100540.06;;;24.93;72.87
23419;BME280;11882;42.522;27.458;2022-08-25T05:11:36;100542.81;;;24.98;72.63
23419;BME280;11882;42.522;27.458;2022-08-25T05:14:04;100537.91;;;25.00;72.13
23419;BME280;11882;42.522;27.458;2022-08-25T05:16:36;100529.72;;;25.05;71.93
23419;BME280;11882;42.522;27.458;2022-08-25T05:19:05;100536.53;;;25.02;71.63
23419;BME280;11882;42.522;27.458;2022-08-25T05:21:32;100528.59;;;25.11;71.82
23419;BME280;11882;42.522;27.458;2022-08-25T05:24:00;100533.72;;;25.23;71.71
23419;BME280;11882;42.522;27.458;2022-08-25T05:26:29;100531.75;;;25.38;71.37
23419;BME280;11882;42.522;27.458;2022-08-25T05:28:57;100532.25;;;25.46;70.26
23419;BME280;11882;42.522;27.458;2022-08-25T05:31:25;100524.03;;;25.56;70.33
23419;BME280;11882;42.522;27.458;2022-08-25T05:33:53;100519.38;;;25.56;69.76
23419;BME280;11882;42.522;27.458;2022-08-25T05:36:23;100516.09;;;25.59;71.43
23419;BME280;11882;42.522;27.458;2022-08-25T05:38:51;100515.25;;;25.69;72.61
23419;BME280;11882;42.522;27.458;2022-08-25T05:41:20;100512.97;;;25.81;73.15
23419;BME280;11882;42.522;27.458;2022-08-25T05:43:48;100508.22;;;25.97;72.22
23419;BME280;11882;42.522;27.458;2022-08-25T05:46:16;100505.66;;;26.16;71.63
23419;BME280;11882;42.522;27.458;2022-08-25T05:48:44;100509.38;;;26.25;70.61
23419;BME280;11882;42.522;27.458;2022-08-25T05:51:12;100505.50;;;26.31;70.58
23419;BME280;11882;42.522;27.458;2022-08-25T05:53:42;100502.78;;;26.31;70.30
23419;BME280;11882;42.522;27.458;2022-08-25T05:56:11;100499.56;;;26.24;70.31
23419;BME280;11882;42.522;27.458;2022-08-25T05:58:39;100505.03;;;26.24;70.69
23419;BME280;11882;42.522;27.458;2022-08-25T06:01:07;100512.63;;;26.27;70.97
23419;BME280;11882;42.522;27.458;2022-08-25T06:03:52;100504.16;;;26.33;71.07
23419;BME280;11882;42.522;27.458;2022-08-25T06:06:19;100507.84;;;26.48;71.46
23419;BME280;11882;42.522;27.458;2022-08-25T06:08:48;100506.63;;;26.59;71.02
23419;BME280;11882;42.522;27.458;2022-08-25T06:11:16;100504.31;;;26.71;70.44
23419;BME280;11882;42.522;27.458;2022-08-25T06:13:43;100510.19;;;26.83;70.21
23419;BME280;11882;42.522;27.458;2022-08-25T06:16:10;100506.88;;;26.86;69.44
23419;BME280;11882;42.522;27.458;2022-08-25T06:18:38;100507.38;;;26.88;68.78
23419;BME280;11882;42.522;27.458;2022-08-25T06:21:09;100516.41;;;26.89;68.42
23419;BME280;11882;42.522;27.458;2022-08-25T06:23:37;100507.69;;;26.87;68.55
23419;BME280;11882;42.522;27.458;2022-08-25T06:26:06;100511.00;;;26.84;68.26
23419;BME280;11882;42.522;27.458;2022-08-25T06:28:36;100508.56;;;26.82;68.77
23419;BME280;11882;42.522;27.458;2022-08-25T06:31:03;100513.19;;;26.82;69.18
23419;BME280;11882;42.522;27.458;2022-08-25T06:33:31;100522.50;;;26.81;69.21
23419;BME280;11882;42.522;27.458;2022-08-25T06:35:58;100520.56;;;26.81;69.68
23419;BME280;11882;42.522;27.458;2022-08-25T06:38:25;100518.38;;;26.83;70.18
23419;BME280;11882;42.522;27.458;2022-08-25T06:40:53;100518.59;;;26.87;69.50
23419;BME280;11882;42.522;27.458;2022-08-25T06:43:23;100510.88;;;26.94;70.10
23419;BME280;11882;42.522;27.458;2022-08-25T06:45:50;100517.34;;;27.03;70.12
23419;BME280;11882;42.522;27.458;2022-08-25T06:48:17;100517.28;;;27.08;69.98
23419;BME280;11882;42.522;27.458;2022-08-25T06:50:45;100516.63;;;27.16;70.72
23419;BME280;11882;42.522;27.458;2022-08-25T06:53:12;100517.69;;;27.20;70.24
23419;BME280;11882;42.522;27.458;2022-08-25T06:55:39;100526.72;;;27.40;69.56
23419;BME280;11882;42.522;27.458;2022-08-25T06:58:07;100533.47;;;27.66;68.80
23419;BME280;11882;42.522;27.458;2022-08-25T07:00:36;100530.00;;;27.79;69.32
23419;BME280;11882;42.522;27.458;2022-08-25T07:03:03;100538.94;;;27.85;68.92
23419;BME280;11882;42.522;27.458;2022-08-25T07:05:31;100536.03;;;27.95;68.61
23419;BME280;11882;42.522;27.458;2022-08-25T07:07:58;100533.22;;;28.00;69.00
23419;BME280;11882;42.522;27.458;2022-08-25T07:10:25;100546.53;;;28.07;68.71
23419;BME280;11882;42.522;27.458;2022-08-25T07:12:52;100540.28;;;28.20;68.67
23419;BME280;11882;42.522;27.458;2022-08-25T07:15:19;100531.16;;;28.43;68.44
23419;BME280;11882;42.522;27.458;2022-08-25T07:17:48;100541.44;;;28.65;68.08
23419;BME280;11882;42.522;27.458;2022-08-25T07:20:16;100541.50;;;29.06;66.50
23419;BME280;11882;42.522;27.458;2022-08-25T07:22:44;100542.09;;;29.44;65.99
23419;BME280;11882;42.522;27.458;2022-08-25T07:25:11;100536.13;;;29.65;65.91
23419;BME280;11882;42.522;27.458;2022-08-25T07:27:38;100541.84;;;29.91;65.26
23419;BME280;11882;42.522;27.458;2022-08-25T07:30:07;100545.50;;;30.22;63.14
23419;BME280;11882;42.522;27.458;2022-08-25T07:32:34;100544.16;;;30.42;62.92
23419;BME280;11882;42.522;27.458;2022-08-25T07:35:04;100539.34;;;30.47;62.50
23419;BME280;11882;42.522;27.458;2022-08-25T07:37:43;100541.59;;;30.45;62.28
23419;BME280;11882;42.522;27.458;2022-08-25T07:40:13;100541.81;;;30.58;62.05
23419;BME280;11882;42.522;27.458;2022-08-25T07:42:41;100538.34;;;30.66;61.94
23419;BME280;11882;42.522;27.458;2022-08-25T07:45:10;100536.28;;;30.80;61.84
23419;BME280;11882;42.522;27.458;2022-08-25T07:47:37;100542.09;;;30.78;61.07
23419;BME280;11882;42.522;27.458;2022-08-25T07:50:08;100541.00;;;30.88;61.14
23419;BME280;11882;42.522;27.458;2022-08-25T07:52:36;100528.56;;;30.91;60.73
23419;BME280;11882;42.522;27.458;2022-08-25T07:55:05;100526.00;;;30.94;61.21
23419;BME280;11882;42.522;27.458;2022-08-25T07:57:32;100523.31;;;31.11;61.47
23419;BME280;11882;42.522;27.458;2022-08-25T08:00:00;100517.75;;;31.34;61.07
23419;BME280;11882;42.522;27.458;2022-08-25T08:02:27;100511.63;;;31.54;60.71
23419;BME280;11882;42.522;27.458;2022-08-25T08:04:54;100499.19;;;31.74;60.02
23419;BME280;11882;42.522;27.458;2022-08-25T08:07:24;100495.47;;;31.79;59.45
23419;BME280;11882;42.522;27.458;2022-08-25T08:09:52;100501.78;;;31.79;60.17
23419;BME280;11882;42.522;27.458;2022-08-25T08:12:20;100499.66;;;31.76;60.33
23419;BME280;11882;42.522;27.458;2022-08-25T08:14:48;100492.38;;;31.89;59.55
23419;BME280;11882;42.522;27.458;2022-08-25T08:17:15;100492.22;;;31.77;59.55
23419;BME280;11882;42.522;27.458;2022-08-25T08:19:42;100499.81;;;31.62;60.88
23419;BME280;11882;42.522;27.458;2022-08-25T08:22:09;100491.72;;;31.57;61.44
23419;BME280;11882;42.522;27.458;2022-08-25T08:24:41;100491.72;;;31.40;61.58
23419;BME280;11882;42.522;27.458;2022-08-25T08:27:11;100494.44;;;31.23;61.81
23419;BME280;11882;42.522;27.458;2022-08-25T08:29:40;100492.22;;;31.02;62.56
23419;BME280;11882;42.522;27.458;2022-08-25T08:32:10;100502.03;;;30.86;62.61
23419;BME280;11882;42.522;27.458;2022-08-25T08:34:38;100501.34;;;30.72;62.99
23419;BME280;11882;42.522;27.458;2022-08-25T08:37:07;100496.13;;;30.62;62.88
23419;BME280;11882;42.522;27.458;2022-08-25T08:39:35;100495.91;;;30.50;63.66
23419;BME280;11882;42.522;27.458;2022-08-25T08:42:16;100498.09;;;30.39;64.47
23419;BME280;11882;42.522;27.458;2022-08-25T08:45:09;100494.81;;;30.28;64.64
23419;BME280;11882;42.522;27.458;2022-08-25T08:47:48;100495.56;;;30.20;65.23
23419;BME280;11882;42.522;27.458;2022-08-25T08:50:29;100488.59;;;30.14;64.94
23419;BME280;11882;42.522;27.458;2022-08-25T08:53:03;100487.59;;;30.10;65.40
23419;BME280;11882;42.522;27.458;2022-08-25T08:55:35;100482.06;;;30.01;65.54
23419;BME280;11882;42.522;27.458;2022-08-25T08:58:08;100484.59;;;29.98;65.59
23419;BME280;11882;42.522;27.458;2022-08-25T09:00:39;100482.97;;;29.97;65.98
23419;BME280;11882;42.522;27.458;2022-08-25T09:03:11;100479.72;;;29.95;67.04
23419;BME280;11882;42.522;27.458;2022-08-25T09:05:46;100479.72;;;29.95;67.22
23419;BME280;11882;42.522;27.458;2022-08-25T09:08:15;100478.91;;;29.94;66.78
23419;BME280;11882;42.522;27.458;2022-08-25T09:10:55;100481.59;;;29.86;66.47
23419;BME280;11882;42.522;27.458;2022-08-25T09:13:33;100475.94;;;29.82;67.64
23419;BME280;11882;42.522;27.458;2022-08-25T09:16:08;100472.69;;;29.80;67.45
23419;BME280;11882;42.522;27.458;2022-08-25T09:19:01;100465.13;;;29.86;67.31
23419;BME280;11882;42.522;27.458;2022-08-25T09:21:36;100463.25;;;29.95;67.54
23419;BME280;11882;42.522;27.458;2022-08-25T09:24:30;100446.13;;;30.11;67.04
23419;BME280;11882;42.522;27.458;2022-08-25T09:27:09;100451.06;;;30.32;66.66
23419;BME280;11882;42.522;27.458;2022-08-25T09:29:53;100448.56;;;30.53;65.47
23419;BME280;11882;42.522;27.458;2022-08-25T09:32:24;100451.56;;;30.65;65.00
23419;BME280;11882;42.522;27.458;2022-08-25T09:34:51;100443.81;;;30.75;65.07
23419;BME280;11882;42.522;27.458;2022-08-25T09:37:21;100445.63;;;30.80;64.92
23419;BME280;11882;42.522;27.458;2022-08-25T09:39:49;100463.72;;;30.81;63.96
23419;BME280;11882;42.522;27.458;2022-08-25T09:42:18;100462.56;;;30.73;64.05
23419;BME280;11882;42.522;27.458;2022-08-25T09:44:47;100466.41;;;30.64;64.06
23419;BME280;11882;42.522;27.458;2022-08-25T09:47:21;100465.38;;;30.51;64.82
23419;BME280;11882;42.522;27.458;2022-08-25T09:49:50;100463.22;;;30.39;65.01
23419;BME280;11882;42.522;27.458;2022-08-25T09:52:34;100455.75;;;30.31;65.71
23419;BME280;11882;42.522;27.458;2022-08-25T09:55:24;100451.25;;;30.35;66.29
23419;BME280;11882;42.522;27.458;2022-08-25T09:57:53;100451.13;;;30.49;65.76
23419;BME280;11882;42.522;27.458;2022-08-25T10:00:26;100447.19;;;30.64;65.20
23419;BME280;11882;42.522;27.458;2022-08-25T10:03:06;100438.66;;;30.74;64.04
23419;BME280;11882;42.522;27.458;2022-08-25T10:05:38;100434.66;;;30.89;
23419;BME280;11882;42.522;27.458;2022-08-25T10:08:23;100428.53;;;31.00;63.72
23419;BME280;11882;42.522;27.458;2022-08-25T10:10:54;100420.94;;;31.06;63.68
23419;BME280;11882;42.522;27.458;2022-08-25T10:13:33;100423.53;;;31.11;63.54
23419;BME280;11882;42.522;27.458;2022-08-25T10:16:09;100419.19;;;31.19;63.45
23419;BME280;11882;42.522;27.458;2022-08-25T10:18:37;100418.66;;;31.08;62.86
23419;BME280;11882;42.522;27.458;2022-08-25T10:21:08;100416.41;;;31.01;63.25
23419;BME280;11882;42.522;27.458;2022-08-25T10:23:39;100421.22;;;30.87;63.61
23419;BME280;11882;42.522;27.458;2022-08-25T10:26:21;100429.59;;;30.73;63.90
23419;BME280;11882;42.522;27.458;2022-08-25T10:29:01;100432.78;;;30.58;65.22
23419;BME280;11882;42.522;27.458;2022-08-25T10:31:36;100437.72;;;30.47;66.38
23419;BME280;11882;42.522;27.458;2022-08-25T10:34:21;100426.81;;;30.25;67.33
23419;BME280;11882;42.522;27.458;2022-08-25T10:36:57;100426.66;;;30.30;67.77
23419;BME280;11882;42.522;27.458;2022-08-25T10:39:35;100432.97;;;30.31;67.53
23419;BME280;11882;42.522;27.458;2022-08-25T10:42:16;100423.44;;;30.28;67.70
23419;BME280;11882;42.522;27.458;2022-08-25T10:44:54;100429.72;;;30.29;67.92
23419;BME280;11882;42.522;27.458;2022-08-25T10:47:53;100430.19;;;30.22;68.13
23419;BME280;11882;42.522;27.458;2022-08-25T10:50:30;100453.41;;;30.16;67.97
23419;BME280;11882;42.522;27.458;2022-08-25T10:53:18;100455.13;;;30.03;68.19
23419;BME280;11882;42.522;27.458;2022-08-25T10:55:53;100461.50;;;29.99;68.79
23419;BME280;11882;42.522;27.458;2022-08-25T10:58:48;100453.22;;;29.90;69.13
23419;BME280;11882;42.522;27.458;2022-08-25T11:01:26;100438.50;;;29.86;69.77
23419;BME280;11882;42.522;27.458;2022-08-25T11:03:59;100440.75;;;29.84;70.27
23419;BME280;11882;42.522;27.458;2022-08-25T11:06:34;100437.66;;;29.77;70.90
23419;BME280;11882;42.522;27.458;2022-08-25T11:09:07;100435.97;;;29.67;71.12
23419;BME280;11882;42.522;27.458;2022-08-25T11:11:39;100433.16;;;29.59;71.89
23419;BME280;11882;42.522;27.458;2022-08-25T11:14:11;100444.56;;;29.52;72.45
23419;BME280;11882;42.522;27.458;2022-08-25T11:16:46;100442.56;;;29.44;73.05
23419;BME280;11882;42.522;27.458;2022-08-25T11:19:19;100448.94;;;29.39;73.51
23419;BME280;11882;42.522;27.458;2022-08-25T11:21:55;100454.72;;;29.38;73.46
23419;BME280;11882;42.522;27.458;2022-08-25T11:24:38;100453.72;;;29.34;74.45
23419;BME280;11882;42.522;27.458;2022-08-25T11:27:11;100450.72;;;29.22;75.44
23419;BME280;11882;42.522;27.458;2022-08-25T11:29:46;100444.44;;;29.21;76.70
23419;BME280;11882;42.522;27.458;2022-08-25T11:32:17;100434.69;;;29.15;77.24
23419;BME280;11882;42.522;27.458;2022-08-25T11:34:47;100428.72;;;29.13;77.67
23419;BME280;11882;42.522;27.458;2022-08-25T11:37:20;100420.28;;;29.09;78.79
23419;BME280;11882;42.522;27.458;2022-08-25T11:42:54;100419.94;;;28.88;82.53
23419;BME280;11882;42.522;27.458;2022-08-25T11:45:44;100431.69;;;28.75;84.87
23419;BME280;11882;42.522;27.458;2022-08-25T11:48:21;100451.88;;;28.66;86.34
23419;BME280;11882;42.522;27.458;2022-08-25T11:51:00;100457.97;;;28.63;86.11
23419;BME280;11882;42.522;27.458;2022-08-25T11:53:30;100463.53;;;28.58;87.59
23419;BME280;11882;42.522;27.458;2022-08-25T11:56:00;100463.44;;;28.49;87.85
23419;BME280;11882;42.522;27.458;2022-08-25T11:58:36;100461.59;;;28.44;88.73
23419;BME280;11882;42.522;27.458;2022-08-25T12:01:08;100449.44;;;28.37;89.67
23419;BME280;11882;42.522;27.458;2022-08-25T12:03:49;100448.81;;;28.26;91.10
23419;BME280;11882;42.522;27.458;2022-08-25T12:06:25;100452.34;;;28.27;91.49
23419;BME280;11882;42.522;27.458;2022-08-25T12:09:19;100464.28;;;28.17;92.66
23419;BME280;11882;42.522;27.458;2022-08-25T12:11:51;100463.84;;;28.10;92.11
23419;BME280;11882;42.522;27.458;2022-08-25T12:14:40;100473.56;;;28.02;91.73
23419;BME280;11882;42.522;27.458;2022-08-25T12:17:19;100466.41;;;27.87;90.16
23419;BME280;11882;42.522;27.458;2022-08-25T12:19:51;100450.91;;;27.83;89.75
23419;BME280;11882;42.522;27.458;2022-08-25T12:22:57;100447.94;;;27.79;90.45
23419;BME280;11882;42.522;27.458;2022-08-25T12:25:49;100446.94;;;27.75;89.46
23419;BME280;11882;42.522;27.458;2022-08-25T12:28:57;100451.59;;;27.75;89.20
23419;BME280;11882;42.522;27.458;2022-08-25T12:31:46;100453.22;;;27.76;88.58
23419;BME280;11882;42.522;27.458;2022-08-25T12:34:36;100453.00;;;27.72;87.77
23419;BME280;11882;42.522;27.458;2022-08-25T12:37:11;100455.22;;;27.70;86.63
23419;BME280;11882;42.522;27.458;2022-08-25T12:39:45;100453.59;;;27.69;86.28
23419;BME280;11882;42.522;27.458;2022-08-25T12:42:22;100453.66;;;27.64;86.72
23419;BME280;11882;42.522;27.458;2022-08-25T12:45:34;100456.44;;;27.59;86.76
23419;BME280;11882;42.522;27.458;2022-08-25T12:51:08;100460.16;;;27.49;85.79
23419;BME280;11882;42.522;27.458;2022-08-25T12:53:43;100450.03;;;27.50;85.79
23419;BME280;11882;42.522;27.458;2022-08-25T12:56:20;100441.84;;;27.50;85.63
23419;BME280;11882;42.522;27.458;2022-08-25T12:58:49;100438.81;;;27.51;85.84
23419;BME280;11882;42.522;27.458;2022-08-25T13:01:25;100427.56;;;27.53;85.83
23419;BME280;11882;42.522;27.458;2022-08-25T13:04:28;100428.53;;;27.43;86.14
23419;BME280;11882;42.522;27.458;2022-08-25T13:07:20;100428.75;;;27.47;85.33
23419;BME280;11882;42.522;27.458;2022-08-25T13:12:56;100427.06;;;27.51;85.78